Time;durP1;ratioP1;P1;durP2;ratioP2;P2;SDS_P1;SDS_P2;PMS_P1;PMS_P2;Temp;Humidity;BMP_temperature;BMP_pressure;BME280_temperature;BME280_humidity;BME280_pressure;Samples;Min_cycle;Max_cycle;Signal;HPM_P1;HPM_P2
2023/07/18 00:01:37;;;;;;;8.17;7.47;;;;;;;;;;6250742;28;20268;-67
2023/07/18 00:04:39;;;;;;;9.30;7.20;;;;;;;;;;6281936;28;20182;-67
2023/07/18 00:07:41;;;;;;;7.83;7.13;;;;;;;;;;6251192;28;20493;-67
2023/07/18 00:10:42;;;;;;;8.07;7.47;;;;;;;;;;6270002;28;20190;-67
2023/07/18 00:13:43;;;;;;;8.80;7.83;;;;;;;;;;6279314;28;20209;-67
2023/07/18 00:16:44;;;;;;;7.30;6.80;;;;;;;;;;6255809;28;20223;-67
2023/07/18 00:19:45;;;;;;;9.90;7.73;;;;;;;;;;6247027;28;20219;-67
2023/07/18 00:22:48;;;;;;;7.73;7.03;;;;;;;;;;6239858;28;20224;-66
2023/07/18 00:25:49;;;;;;;8.20;7.47;;;;;;;;;;6258841;28;20235;-68
2023/07/18 00:28:53;;;;;;;9.80;7.03;;;;;;;;;;6245143;28;20298;-68
2023/07/18 00:31:54;;;;;;;8.17;7.47;;;;;;;;;;6250927;28;20198;-68
2023/07/18 00:34:56;;;;;;;7.90;6.77;;;;;;;;;;6256010;28;20198;-68
2023/07/18 00:37:57;;;;;;;7.80;7.00;;;;;;;;;;6246453;28;20197;-68
2023/07/18 00:40:59;;;;;;;8.20;7.40;;;;;;;;;;6242340;28;20217;-68
2023/07/18 00:44:00;;;;;;;9.77;7.77;;;;;;;;;;6246341;28;20197;-68
2023/07/18 00:47:01;;;;;;;7.77;7.07;;;;;;;;;;6269154;28;20200;-68
2023/07/18 00:50:02;;;;;;;7.80;7.00;;;;;;;;;;6248920;28;20196;-68
2023/07/18 00:53:03;;;;;;;7.83;7.23;;;;;;;;;;6277558;28;20198;-68
2023/07/18 00:56:04;;;;;;;7.07;6.50;;;;;;;;;;6247218;28;20200;-68
2023/07/18 00:59:07;;;;;;;7.57;6.93;;;;;;;;;;6252879;28;20205;-68
2023/07/18 01:02:09;;;;;;;8.53;6.80;;;;;;;;;;6263101;28;20222;-68
2023/07/18 01:05:10;;;;;;;8.10;7.30;;;;;;;;;;6262549;28;20182;-68
2023/07/18 01:08:12;;;;;;;8.20;7.40;;;;;;;;;;6243749;28;20193;-67
2023/07/18 01:11:13;;;;;;;8.13;7.33;;;;;;;;;;6249477;28;20201;-67
2023/07/18 01:14:14;;;;;;;8.10;7.33;;;;;;;;;;6252510;28;20186;-67
2023/07/18 01:17:15;;;;;;;7.97;7.20;;;;;;;;;;6253290;28;20213;-67
2023/07/18 01:20:21;;;;;;;7.13;6.53;;;;;;;;;;6254882;28;20246;-67
2023/07/18 01:23:24;;;;;;;8.13;7.37;;;;;;;;;;6251583;28;20269;-67
2023/07/18 01:26:25;;;;;;;7.60;6.90;;;;;;;;;;6264088;28;20189;-69
2023/07/18 01:29:26;;;;;;;7.33;6.70;;;;;;;;;;6255597;28;20240;-68
2023/07/18 01:32:27;;;;;;;7.33;6.60;;;;;;;;;;6254201;28;20186;-68
2023/07/18 01:35:28;;;;;;;7.87;7.17;;;;;;;;;;6250023;28;20198;-68
2023/07/18 01:38:29;;;;;;;7.67;6.90;;;;;;;;;;6267431;28;20212;-68
2023/07/18 01:41:30;;;;;;;7.27;6.57;;;;;;;;;;6264964;28;20222;-68
2023/07/18 01:44:33;;;;;;;7.33;6.70;;;;;;;;;;6256347;28;20199;-68
2023/07/18 01:47:34;;;;;;;7.00;6.40;;;;;;;;;;6254763;28;20584;-68
2023/07/18 01:50:35;;;;;;;7.93;6.80;;;;;;;;;;6245105;28;20201;-68
2023/07/18 01:53:36;;;;;;;7.80;7.10;;;;;;;;;;6252304;28;20258;-68
2023/07/18 01:56:38;;;;;;;7.00;6.40;;;;;;;;;;6245702;28;20199;-68
2023/07/18 01:59:39;;;;;;;7.37;6.77;;;;;;;;;;6248923;28;20194;-68
2023/07/18 02:02:40;;;;;;;6.63;6.03;;;;;;;;;;6240776;28;20193;-68
2023/07/18 02:05:41;;;;;;;7.27;6.67;;;;;;;;;;6248215;28;20202;-68
2023/07/18 02:08:42;;;;;;;7.97;6.57;;;;;;;;;;6248451;28;20187;-68
2023/07/18 02:11:43;;;;;;;6.67;6.07;;;;;;;;;;6245453;28;20201;-68
2023/07/18 02:14:44;;;;;;;7.77;6.97;;;;;;;;;;6245212;28;20248;-68
2023/07/18 02:17:46;;;;;;;6.97;6.30;;;;;;;;;;6258862;28;20199;-68
2023/07/18 02:20:47;;;;;;;7.53;6.83;;;;;;;;;;6251638;28;20223;-68
2023/07/18 02:23:48;;;;;;;7.63;6.57;;;;;;;;;;6267779;28;20196;-68
2023/07/18 02:26:49;;;;;;;6.30;5.80;;;;;;;;;;6254504;28;20187;-68
2023/07/18 02:29:50;;;;;;;7.90;6.30;;;;;;;;;;6246940;28;20289;-68
2023/07/18 02:32:51;;;;;;;7.93;5.90;;;;;;;;;;6269235;28;20200;-68
2023/07/18 02:35:52;;;;;;;7.57;6.87;;;;;;;;;;6250970;28;20194;-68
2023/07/18 02:38:53;;;;;;;6.47;5.87;;;;;;;;;;6248900;28;20195;-68
2023/07/18 02:41:54;;;;;;;8.77;6.80;;;;;;;;;;6249979;28;20217;-68
2023/07/18 02:44:55;;;;;;;7.67;6.47;;;;;;;;;;6257448;28;20196;-68
2023/07/18 02:47:57;;;;;;;7.60;6.67;;;;;;;;;;6246044;28;20243;-68
2023/07/18 02:50:58;;;;;;;8.43;6.47;;;;;;;;;;6247064;28;20190;-68
2023/07/18 02:53:59;;;;;;;6.50;5.93;;;;;;;;;;6266436;28;20195;-68
2023/07/18 02:57:00;;;;;;;9.20;7.40;;;;;;;;;;6259592;28;20198;-67
2023/07/18 03:00:03;;;;;;;6.60;6.10;;;;;;;;;;6251215;28;20222;-67
2023/07/18 03:03:04;;;;;;;7.53;6.90;;;;;;;;;;6267867;28;20182;-67
2023/07/18 03:06:05;;;;;;;7.73;6.93;;;;;;;;;;6274230;28;20201;-68
2023/07/18 03:09:06;;;;;;;7.30;6.60;;;;;;;;;;6266216;28;20185;-68
2023/07/18 03:12:07;;;;;;;7.60;6.60;;;;;;;;;;6239268;28;21425;-67
2023/07/18 03:15:12;;;;;;;7.60;6.90;;;;;;;;;;6247294;28;20196;-67
2023/07/18 03:18:13;;;;;;;7.33;6.73;;;;;;;;;;6262600;28;20195;-67
2023/07/18 03:21:16;;;;;;;6.63;6.13;;;;;;;;;;6254241;28;20275;-67
2023/07/18 03:24:17;;;;;;;7.60;6.90;;;;;;;;;;6257544;28;20221;-67
2023/07/18 03:27:18;;;;;;;7.73;7.13;;;;;;;;;;6270408;28;20190;-66
2023/07/18 03:30:21;;;;;;;8.03;7.30;;;;;;;;;;6246610;28;20210;-67
2023/07/18 03:33:22;;;;;;;7.80;7.10;;;;;;;;;;6240323;28;20233;-67
2023/07/18 03:36:23;;;;;;;7.90;7.07;;;;;;;;;;6273877;28;20196;-66
2023/07/18 03:39:24;;;;;;;8.30;7.50;;;;;;;;;;6248702;28;20190;-66
2023/07/18 03:42:25;;;;;;;7.73;6.93;;;;;;;;;;6240485;28;20221;-66
2023/07/18 03:45:26;;;;;;;7.27;6.60;;;;;;;;;;6274160;28;20190;-66
2023/07/18 03:48:28;;;;;;;8.97;7.00;;;;;;;;;;6247670;28;20188;-66
2023/07/18 03:51:29;;;;;;;7.50;6.90;;;;;;;;;;6247860;28;20263;-66
2023/07/18 03:54:30;;;;;;;7.43;6.77;;;;;;;;;;6261059;28;20244;-66
2023/07/18 03:57:31;;;;;;;7.70;7.00;;;;;;;;;;6253206;28;20189;-66
2023/07/18 04:00:32;;;;;;;7.37;6.63;;;;;;;;;;6262101;28;20225;-66
2023/07/18 04:03:33;;;;;;;8.40;7.17;;;;;;;;;;6241899;28;20191;-66
2023/07/18 04:06:34;;;;;;;7.77;7.07;;;;;;;;;;6255876;28;20189;-65
2023/07/18 04:09:35;;;;;;;9.10;7.37;;;;;;;;;;6241664;28;20186;-65
2023/07/18 04:12:36;;;;;;;7.60;7.00;;;;;;;;;;6249978;28;20241;-66
2023/07/18 04:15:37;;;;;;;7.73;7.10;;;;;;;;;;6244944;28;20193;-66
2023/07/18 04:18:38;;;;;;;7.47;6.77;;;;;;;;;;6253274;28;20193;-66
2023/07/18 04:21:39;;;;;;;8.20;7.13;;;;;;;;;;6277785;28;20216;-66
2023/07/18 04:24:40;;;;;;;9.03;7.07;;;;;;;;;;6274140;28;20208;-66
2023/07/18 04:27:42;;;;;;;7.97;7.17;;;;;;;;;;6250830;28;20252;-66
2023/07/18 04:30:43;;;;;;;7.67;6.97;;;;;;;;;;6247665;28;20300;-66
2023/07/18 04:33:45;;;;;;;7.80;7.10;;;;;;;;;;6251484;28;20277;-66
2023/07/18 04:36:46;;;;;;;7.93;7.23;;;;;;;;;;6245861;28;20186;-66
2023/07/18 04:39:47;;;;;;;7.67;6.90;;;;;;;;;;6236140;28;20201;-66
2023/07/18 04:42:48;;;;;;;8.03;7.33;;;;;;;;;;6270296;28;20193;-66
2023/07/18 04:45:49;;;;;;;9.10;7.63;;;;;;;;;;6255080;28;20186;-66
2023/07/18 04:48:51;;;;;;;8.17;7.30;;;;;;;;;;6264416;28;20179;-66
2023/07/18 04:51:52;;;;;;;8.17;6.87;;;;;;;;;;6268116;28;20209;-66
2023/07/18 04:54:54;;;;;;;7.87;7.03;;;;;;;;;;6264871;28;20190;-66
2023/07/18 04:57:55;;;;;;;7.47;6.80;;;;;;;;;;6242955;28;20186;-66
2023/07/18 05:00:57;;;;;;;8.03;7.23;;;;;;;;;;6241132;28;20222;-67
2023/07/18 05:03:58;;;;;;;7.30;6.70;;;;;;;;;;6263104;28;20254;-66
2023/07/18 05:06:59;;;;;;;7.43;6.77;;;;;;;;;;6256701;28;20201;-67
2023/07/18 05:10:00;;;;;;;7.87;7.07;;;;;;;;;;6262857;28;20192;-68
2023/07/18 05:13:01;;;;;;;7.27;6.57;;;;;;;;;;6246929;28;20187;-67
2023/07/18 05:16:02;;;;;;;7.80;7.13;;;;;;;;;;6238590;28;20186;-67
2023/07/18 05:19:03;;;;;;;7.70;7.00;;;;;;;;;;6246402;28;20196;-67
2023/07/18 05:22:04;;;;;;;7.63;6.83;;;;;;;;;;6260046;28;20208;-67
2023/07/18 05:25:06;;;;;;;7.67;6.87;;;;;;;;;;6265218;28;20193;-67
2023/07/18 05:28:08;;;;;;;9.77;7.17;;;;;;;;;;6248379;28;20230;-66
2023/07/18 05:31:09;;;;;;;7.93;7.23;;;;;;;;;;6248536;28;20194;-67
2023/07/18 05:34:10;;;;;;;7.20;6.60;;;;;;;;;;6249817;28;20244;-67
2023/07/18 05:37:11;;;;;;;7.37;6.67;;;;;;;;;;6273717;28;20190;-67
2023/07/18 05:40:12;;;;;;;7.33;6.73;;;;;;;;;;6246629;28;20213;-67
2023/07/18 05:43:13;;;;;;;6.90;6.17;;;;;;;;;;6240650;28;20239;-67
2023/07/18 05:46:14;;;;;;;7.37;6.67;;;;;;;;;;6248219;28;20191;-67
2023/07/18 05:49:15;;;;;;;7.13;6.37;;;;;;;;;;6251817;28;20193;-67
2023/07/18 05:52:16;;;;;;;8.30;7.53;;;;;;;;;;6244410;28;20191;-67
2023/07/18 05:55:17;;;;;;;7.80;7.10;;;;;;;;;;6245231;28;20191;-67
2023/07/18 05:58:19;;;;;;;8.17;7.40;;;;;;;;;;6255724;28;20201;-67
2023/07/18 06:01:21;;;;;;;7.17;6.67;;;;;;;;;;6245330;28;20219;-67
2023/07/18 06:04:23;;;;;;;7.43;6.73;;;;;;;;;;6233657;28;20221;-67
2023/07/18 06:07:24;;;;;;;7.70;7.10;;;;;;;;;;6257574;28;20239;-68
2023/07/18 06:10:25;;;;;;;8.10;7.30;;;;;;;;;;6238498;28;20244;-66
2023/07/18 06:13:26;;;;;;;7.30;6.63;;;;;;;;;;6254653;28;20190;-66
2023/07/18 06:16:27;;;;;;;7.70;7.00;;;;;;;;;;6243915;28;20197;-66
2023/07/18 06:19:28;;;;;;;7.70;7.10;;;;;;;;;;6250533;28;20192;-66
2023/07/18 06:22:30;;;;;;;7.40;6.73;;;;;;;;;;6247624;28;20232;-66
2023/07/18 06:25:31;;;;;;;7.03;6.47;;;;;;;;;;6246685;28;20186;-66
2023/07/18 06:28:32;;;;;;;6.83;6.23;;;;;;;;;;6248955;28;20285;-66
2023/07/18 06:31:35;;;;;;;7.77;7.07;;;;;;;;;;6278342;28;20194;-66
2023/07/18 06:34:40;;;;;;;6.77;6.20;;;;;;;;;;6256627;28;20187;-66
2023/07/18 06:37:42;;;;;;;7.80;7.10;;;;;;;;;;6251701;28;20232;-66
2023/07/18 06:40:45;;;;;;;7.67;6.73;;;;;;;;;;6240947;28;20225;-66
2023/07/18 06:43:46;;;;;;;7.73;7.03;;;;;;;;;;6267947;28;20181;-66
2023/07/18 06:46:47;;;;;;;7.27;6.67;;;;;;;;;;6258159;28;20194;-66
2023/07/18 06:49:49;;;;;;;7.33;6.73;;;;;;;;;;6244135;28;20190;-66
2023/07/18 06:52:51;;;;;;;8.80;6.60;;;;;;;;;;6253453;28;20214;-66
2023/07/18 06:55:53;;;;;;;7.00;6.30;;;;;;;;;;6250107;28;20214;-66
2023/07/18 06:58:54;;;;;;;8.87;7.20;;;;;;;;;;6243864;28;20183;-67
2023/07/18 07:01:55;;;;;;;7.20;6.60;;;;;;;;;;6260110;28;20220;-67
2023/07/18 07:04:56;;;;;;;7.07;6.47;;;;;;;;;;6269201;28;20231;-67
2023/07/18 07:07:57;;;;;;;7.57;6.97;;;;;;;;;;6273550;28;20187;-67
2023/07/18 07:11:05;;;;;;;7.07;6.43;;;;;;;;;;6279614;28;20221;-67
2023/07/18 07:14:06;;;;;;;8.07;7.20;;;;;;;;;;6254462;28;20201;-67
2023/07/18 07:17:08;;;;;;;6.73;6.23;;;;;;;;;;6252213;28;20200;-67
2023/07/18 07:20:12;;;;;;;7.43;6.73;;;;;;;;;;6256276;28;20205;-68
2023/07/18 07:23:13;;;;;;;11.20;7.00;;;;;;;;;;6260500;28;20278;-68
2023/07/18 07:26:15;;;;;;;7.27;6.57;;;;;;;;;;6249637;28;20220;-68
2023/07/18 07:29:16;;;;;;;9.30;6.80;;;;;;;;;;6251512;28;20253;-68
2023/07/18 07:32:18;;;;;;;7.33;6.33;;;;;;;;;;6246031;28;20186;-68
2023/07/18 07:35:19;;;;;;;6.83;6.13;;;;;;;;;;6258705;28;20200;-68
2023/07/18 07:38:20;;;;;;;9.03;6.10;;;;;;;;;;6258373;28;20228;-68
2023/07/18 07:41:22;;;;;;;6.60;6.10;;;;;;;;;;6257822;28;20209;-68
2023/07/18 07:44:23;;;;;;;9.17;6.90;;;;;;;;;;6249785;28;20182;-67
2023/07/18 07:47:24;;;;;;;6.80;6.13;;;;;;;;;;6239530;28;20261;-67
2023/07/18 07:50:25;;;;;;;7.13;6.47;;;;;;;;;;6240877;28;20190;-67
2023/07/18 07:53:27;;;;;;;7.20;6.60;;;;;;;;;;6250047;28;20207;-68
2023/07/18 07:56:28;;;;;;;6.70;6.10;;;;;;;;;;6269709;28;20190;-70
2023/07/18 07:59:29;;;;;;;6.83;6.23;;;;;;;;;;6252945;28;20190;-69
2023/07/18 08:02:30;;;;;;;7.77;7.00;;;;;;;;;;6247669;28;20217;-70
2023/07/18 08:05:31;;;;;;;10.00;6.30;;;;;;;;;;6257942;28;20316;-69
2023/07/18 08:08:32;;;;;;;7.20;6.50;;;;;;;;;;6249506;28;20187;-70
2023/07/18 08:11:33;;;;;;;7.67;6.93;;;;;;;;;;6250739;28;20201;-70
2023/07/18 08:14:37;;;;;;;7.50;6.50;;;;;;;;;;6255627;28;20185;-70
2023/07/18 08:17:38;;;;;;;7.63;6.93;;;;;;;;;;6250689;28;20194;-70
2023/07/18 08:20:39;;;;;;;8.37;6.70;;;;;;;;;;6261421;28;20214;-70
2023/07/18 08:23:40;;;;;;;7.87;7.17;;;;;;;;;;6245596;28;20179;-70
2023/07/18 08:26:41;;;;;;;9.00;7.10;;;;;;;;;;6257261;28;20190;-69
2023/07/18 08:29:43;;;;;;;7.57;6.87;;;;;;;;;;6264750;28;20296;-69
2023/07/18 08:32:44;;;;;;;7.90;7.20;;;;;;;;;;6256051;28;20198;-69
2023/07/18 08:35:45;;;;;;;7.23;6.53;;;;;;;;;;6244323;28;20189;-69
2023/07/18 08:38:49;;;;;;;7.10;6.50;;;;;;;;;;6252292;28;20219;-69
2023/07/18 08:41:51;;;;;;;7.07;6.47;;;;;;;;;;6266142;28;20218;-69
2023/07/18 08:44:54;;;;;;;6.43;5.93;;;;;;;;;;6244109;28;20193;-68
2023/07/18 08:47:56;;;;;;;7.07;6.37;;;;;;;;;;6250307;28;20183;-68
2023/07/18 08:50:59;;;;;;;6.83;6.20;;;;;;;;;;6255084;28;20202;-68
2023/07/18 08:54:01;;;;;;;6.73;6.03;;;;;;;;;;6251768;28;20187;-69
2023/07/18 08:57:03;;;;;;;6.63;6.07;;;;;;;;;;6245747;28;20197;-69
2023/07/18 09:00:05;;;;;;;7.87;6.20;;;;;;;;;;6262189;28;20210;-70
2023/07/18 09:03:06;;;;;;;6.60;6.10;;;;;;;;;;6267713;28;20188;-70
2023/07/18 09:06:20;;;;;;;6.30;5.70;;;;;;;;;;6241732;28;20221;-71
2023/07/18 09:09:21;;;;;;;6.43;5.93;;;;;;;;;;6248768;28;20197;-70
2023/07/18 09:12:22;;;;;;;7.00;6.40;;;;;;;;;;6282213;28;20194;-70
2023/07/18 09:15:23;;;;;;;6.47;5.90;;;;;;;;;;6275491;28;20231;-70
2023/07/18 09:18:24;;;;;;;6.33;5.73;;;;;;;;;;6247400;28;20204;-70
2023/07/18 09:21:25;;;;;;;8.13;6.47;;;;;;;;;;6239337;28;20235;-70
2023/07/18 09:24:35;;;;;;;7.07;6.27;;;;;;;;;;6268744;28;20277;-70
2023/07/18 09:27:36;;;;;;;6.60;6.10;;;;;;;;;;6243819;28;20325;-72
2023/07/18 09:30:37;;;;;;;7.67;6.17;;;;;;;;;;6254390;28;20615;-70
2023/07/18 09:33:38;;;;;;;7.60;6.90;;;;;;;;;;6244462;28;20186;-70
2023/07/18 09:36:39;;;;;;;6.80;6.20;;;;;;;;;;6244798;28;20201;-70
2023/07/18 09:39:41;;;;;;;7.20;6.60;;;;;;;;;;6264398;28;20193;-70
2023/07/18 09:42:43;;;;;;;6.83;6.33;;;;;;;;;;6246280;28;20209;-70
2023/07/18 09:45:44;;;;;;;6.63;6.10;;;;;;;;;;6243455;28;20199;-70
2023/07/18 09:48:46;;;;;;;6.63;6.03;;;;;;;;;;6272728;28;20186;-68
2023/07/18 09:51:50;;;;;;;5.90;5.40;;;;;;;;;;6270473;28;20186;-69
2023/07/18 09:54:53;;;;;;;6.57;6.07;;;;;;;;;;6256086;28;20433;-69
2023/07/18 09:57:55;;;;;;;6.27;5.77;;;;;;;;;;6262982;28;20227;-70
2023/07/18 10:00:57;;;;;;;6.60;6.07;;;;;;;;;;6268305;28;20209;-69
2023/07/18 10:03:58;;;;;;;6.57;5.97;;;;;;;;;;6265076;28;20196;-70
2023/07/18 10:06:59;;;;;;;5.97;5.53;;;;;;;;;;6261200;28;20194;-69
2023/07/18 10:10:09;;;;;;;6.67;6.07;;;;;;;;;;6249335;28;20332;-67
2023/07/18 10:13:10;;;;;;;6.37;5.87;;;;;;;;;;6271450;28;20273;-67
2023/07/18 10:16:14;;;;;;;6.63;6.03;;;;;;;;;;6244497;28;20277;-67
2023/07/18 10:19:19;;;;;;;7.37;6.50;;;;;;;;;;6269610;28;20200;-67
2023/07/18 10:22:27;;;;;;;6.67;6.00;;;;;;;;;;6253218;28;20218;-67
2023/07/18 10:25:32;;;;;;;6.87;6.27;;;;;;;;;;6251962;28;20273;-67
2023/07/18 10:28:46;;;;;;;6.33;5.73;;;;;;;;;;6261780;28;20234;-66
2023/07/18 10:31:48;;;;;;;8.30;6.13;;;;;;;;;;6266097;28;20190;-66
2023/07/18 10:34:55;;;;;;;7.37;6.73;;;;;;;;;;6248824;28;20220;-68
2023/07/18 10:37:57;;;;;;;6.27;5.77;;;;;;;;;;6251690;28;20195;-66
2023/07/18 10:40:58;;;;;;;6.67;6.07;;;;;;;;;;6250009;28;20271;-66
2023/07/18 10:43:59;;;;;;;7.17;6.57;;;;;;;;;;6265881;28;20228;-65
2023/07/18 10:47:00;;;;;;;7.07;6.23;;;;;;;;;;6252023;28;20182;-66
2023/07/18 10:50:02;;;;;;;7.27;6.67;;;;;;;;;;6274080;28;20191;-68
2023/07/18 10:53:03;;;;;;;7.30;6.70;;;;;;;;;;6262245;28;20186;-67
2023/07/18 10:56:04;;;;;;;7.60;7.00;;;;;;;;;;6261474;28;20186;-68
2023/07/18 10:59:05;;;;;;;7.50;6.90;;;;;;;;;;6257287;28;20186;-69
2023/07/18 11:02:07;;;;;;;7.60;6.83;;;;;;;;;;6254086;28;20220;-69
2023/07/18 11:05:11;;;;;;;7.67;6.90;;;;;;;;;;6248445;28;20207;-69
2023/07/18 11:08:22;;;;;;;7.33;6.47;;;;;;;;;;6270948;28;20262;-68
2023/07/18 11:11:23;;;;;;;7.63;7.03;;;;;;;;;;6259879;28;20183;-69
2023/07/18 11:14:24;;;;;;;7.23;6.53;;;;;;;;;;6269637;28;20250;-69
2023/07/18 11:17:25;;;;;;;7.17;6.57;;;;;;;;;;6242364;28;20269;-69
2023/07/18 11:20:26;;;;;;;7.23;6.53;;;;;;;;;;6255097;28;20218;-68
2023/07/18 11:23:27;;;;;;;6.93;6.33;;;;;;;;;;6251136;28;20209;-69
2023/07/18 11:26:28;;;;;;;6.90;6.40;;;;;;;;;;6258150;28;20256;-68
2023/07/18 11:29:29;;;;;;;9.50;6.70;;;;;;;;;;6245249;28;20267;-68
2023/07/18 11:32:41;;;;;;;7.03;6.43;;;;;;;;;;6252199;28;20225;-68
2023/07/18 11:35:46;;;;;;;7.23;6.63;;;;;;;;;;6270780;28;20190;-68
2023/07/18 11:38:50;;;;;;;7.33;6.73;;;;;;;;;;6246192;28;20285;-68
2023/07/18 11:41:52;;;;;;;7.03;6.43;;;;;;;;;;6255264;28;20285;-69
2023/07/18 11:44:55;;;;;;;7.30;6.70;;;;;;;;;;6253530;28;20202;-67
2023/07/18 11:47:57;;;;;;;7.90;6.97;;;;;;;;;;6271322;28;20182;-68
2023/07/18 11:50:58;;;;;;;7.67;6.33;;;;;;;;;;6253837;28;20185;-68
2023/07/18 11:54:03;;;;;;;6.83;6.33;;;;;;;;;;6249299;28;20259;-67
2023/07/18 11:57:05;;;;;;;7.75;7.05;;;;;;;;;;6254830;28;20751;-66
2023/07/18 12:00:08;;;;;;;7.20;6.30;;;;;;;;;;6254378;28;20218;-70
2023/07/18 12:03:09;;;;;;;7.07;6.33;;;;;;;;;;6254904;28;20195;-71
2023/07/18 12:06:10;;;;;;;6.50;6.00;;;;;;;;;;6239043;28;20193;-66
2023/07/18 12:09:11;;;;;;;6.70;6.13;;;;;;;;;;6256267;28;20178;-68
2023/07/18 12:12:12;;;;;;;6.23;5.63;;;;;;;;;;6253047;28;20181;-67
2023/07/18 12:15:13;;;;;;;6.70;6.10;;;;;;;;;;6273270;28;20196;-70
2023/07/18 12:18:14;;;;;;;6.23;5.73;;;;;;;;;;6247729;28;20201;-68
2023/07/18 12:21:16;;;;;;;7.90;6.63;;;;;;;;;;6247792;28;20205;-69
2023/07/18 12:24:18;;;;;;;6.37;5.77;;;;;;;;;;6245585;28;20183;-69
2023/07/18 12:27:19;;;;;;;6.00;5.50;;;;;;;;;;6240585;28;20229;-69
2023/07/18 12:30:20;;;;;;;6.40;5.80;;;;;;;;;;6246537;28;20202;-69
2023/07/18 12:33:23;;;;;;;6.70;6.10;;;;;;;;;;6273880;28;20198;-68
2023/07/18 12:36:24;;;;;;;7.33;6.30;;;;;;;;;;6277621;28;20194;-69
2023/07/18 12:39:25;;;;;;;6.20;5.70;;;;;;;;;;6265149;28;20181;-68
2023/07/18 12:42:26;;;;;;;6.07;5.67;;;;;;;;;;6245171;28;20210;-70
2023/07/18 12:45:28;;;;;;;6.23;5.83;;;24.60;86.10;;;;;;6270791;28;20250;-69
2023/07/18 12:48:29;;;;;;;7.47;5.83;;;;;;;;;;6234382;28;20206;-70
2023/07/18 12:51:30;;;;;;;8.63;6.13;;;32.20;56.50;;;;;;6237925;28;20182;-68
2023/07/18 12:54:32;;;;;;;7.60;6.17;;;;;;;;;;6235001;28;20193;-69
2023/07/18 12:57:33;;;;;;;6.03;5.53;;;32.00;56.70;;;;;;6263807;28;20178;-69
2023/07/18 13:00:34;;;;;;;6.53;5.97;;;31.60;58.40;;;;;;6259486;28;20209;-69
2023/07/18 13:03:34;;;;;;;6.73;6.07;;;31.70;58.60;;;;;;6252358;28;20269;-67
2023/07/18 13:06:36;;;;;;;6.63;5.93;;;31.80;57.70;;;;;;6232431;28;20282;-70
2023/07/18 13:09:38;;;;;;;6.33;5.70;;;;;;;;;;6259582;28;20253;-70
2023/07/18 13:12:39;;;;;;;7.50;5.80;;;;;;;;;;6242606;28;20179;-70
2023/07/18 13:15:40;;;;;;;6.27;5.40;;;;;;;;;;6256211;28;20239;-70
2023/07/18 13:18:41;;;;;;;6.87;5.70;;;;;;;;;;6241709;28;20194;-70
2023/07/18 13:21:42;;;;;;;6.33;5.73;;;;;;;;;;6258084;28;20216;-67
2023/07/18 13:24:44;;;;;;;6.40;5.80;;;;;;;;;;6264592;28;20185;-66
2023/07/18 13:27:45;;;;;;;6.27;5.77;;;;;;;;;;6275708;28;20321;-69
2023/07/18 13:30:46;;;;;;;5.93;5.43;;;;;;;;;;6244457;28;20190;-69
2023/07/18 13:33:47;;;;;;;6.93;6.00;;;31.90;56.90;;;;;;6255533;28;20186;-70
2023/07/18 13:36:48;;;;;;;5.77;5.37;;;31.90;58.90;;;;;;6248861;28;20189;-69
2023/07/18 13:39:48;;;;;;;6.50;5.90;;;32.20;53.80;;;;;;6242792;28;20212;-70
2023/07/18 13:42:49;;;;;;;7.13;5.63;;;;;;;;;;6245915;28;20214;-66
2023/07/18 13:45:50;;;;;;;6.93;6.10;;;32.40;54.00;;;;;;6238639;28;20221;-70
2023/07/18 13:48:51;;;;;;;6.50;5.80;;;32.80;54.60;;;;;;6261453;28;20186;-72
2023/07/18 13:51:51;;;;;;;6.63;5.67;;;32.90;52.10;;;;;;6245277;28;20189;-68
2023/07/18 13:54:52;;;;;;;7.70;5.90;;;33.00;54.90;;;;;;6279813;28;20186;-69
2023/07/18 13:57:53;;;;;;;5.90;5.43;;;33.00;54.30;;;;;;6249145;28;20247;-69
2023/07/18 14:00:54;;;;;;;6.27;5.67;;;33.20;54.90;;;;;;6271471;28;20214;-67
2023/07/18 14:03:55;;;;;;;6.27;5.77;;;;;;;;;;6257513;28;20186;-67
2023/07/18 14:06:56;;;;;;;6.37;5.87;;;33.60;53.50;;;;;;6262699;28;20237;-70
2023/07/18 14:09:56;;;;;;;9.77;6.17;;;33.60;53.60;;;;;;6259889;28;20278;-69
2023/07/18 14:12:57;;;;;;;7.17;6.43;;;33.70;51.60;;;;;;6261411;28;20187;-68
2023/07/18 14:15:58;;;;;;;9.17;5.50;;;;;;;;;;6267215;28;20193;-68
2023/07/18 14:18:59;;;;;;;6.47;5.90;;;33.90;53.30;;;;;;6269056;28;20187;-68
2023/07/18 14:22:00;;;;;;;6.03;5.50;;;33.60;54.30;;;;;;6257161;28;20217;-69
2023/07/18 14:25:04;;;;;;;6.50;5.93;;;33.60;52.50;;;;;;6247986;28;20183;-69
2023/07/18 14:28:05;;;;;;;5.90;5.40;;;33.50;49.80;;;;;;6283080;28;20233;-65
2023/07/18 14:31:05;;;;;;;6.27;5.70;;;33.50;52.30;;;;;;6264047;28;20189;-66
2023/07/18 14:34:06;;;;;;;5.40;5.00;;;33.30;54.50;;;;;;6244884;28;20201;-67
2023/07/18 14:37:06;;;;;;;6.23;5.63;;;33.00;55.80;;;;;;6265851;28;20312;-67
2023/07/18 14:40:08;;;;;;;7.00;6.30;;;32.70;55.30;;;;;;6263441;28;20192;-70
2023/07/18 14:43:10;;;;;;;6.80;6.20;;;32.50;54.40;;;;;;6260987;28;20504;-67
2023/07/18 14:46:10;;;;;;;6.87;6.27;;;32.50;56.50;;;;;;6260246;28;20185;-70
2023/07/18 14:49:11;;;;;;;9.33;6.50;;;32.60;57.50;;;;;;6252703;28;20186;-70
2023/07/18 14:52:12;;;;;;;6.73;6.13;;;32.80;56.60;;;;;;6258246;28;20182;-70
2023/07/18 14:55:13;;;;;;;6.90;6.07;;;32.80;56.80;;;;;;6269613;28;20182;-69
2023/07/18 14:58:14;;;;;;;6.73;6.07;;;32.80;56.00;;;;;;6253031;28;20194;-69
2023/07/18 15:01:15;;;;;;;6.97;6.27;;;;;;;;;;6266542;28;20208;-69
2023/07/18 15:04:15;;;;;;;7.70;6.97;;;32.20;56.80;;;;;;6266475;28;20249;-69
2023/07/18 15:07:18;;;;;;;7.83;6.93;;;31.90;58.30;;;;;;6262703;28;20187;-64
2023/07/18 15:10:18;;;;;;;8.47;7.67;;;31.50;59.00;;;;;;6253598;28;20243;-69
2023/07/18 15:13:19;;;;;;;8.93;7.60;;;31.20;59.70;;;;;;6243574;28;20227;-69
2023/07/18 15:16:20;;;;;;;7.90;6.10;;;30.90;60.00;;;;;;6235054;28;20248;-64
2023/07/18 15:19:20;;;;;;;8.70;6.80;;;30.50;60.40;;;;;;6253171;28;20214;-67
2023/07/18 15:22:21;;;;;;;7.57;6.77;;;30.20;61.90;;;;;;6255838;28;20202;-69
2023/07/18 15:25:22;;;;;;;7.00;6.47;;;;;;;;;;6266209;28;20183;-69
2023/07/18 15:28:23;;;;;;;7.47;6.87;;;;;;;;;;6272978;28;20237;-69
2023/07/18 15:31:24;;;;;;;7.20;6.50;;;;;;;;;;6256694;28;20178;-69
2023/07/18 15:34:25;;;;;;;7.38;6.78;;;;;;;;;;6239318;28;20734;-70
2023/07/18 15:37:26;;;;;;;8.27;6.80;;;;;;;;;;6256411;28;20182;-67
2023/07/18 15:40:27;;;;;;;8.70;7.13;;;;;;;;;;6253889;28;20216;-70
2023/07/18 15:43:28;;;;;;;9.27;7.57;;;;;;;;;;6241812;28;20254;-68
2023/07/18 15:46:29;;;;;;;8.40;7.50;;;;;;;;;;6285935;28;20274;-70
2023/07/18 15:49:30;;;;;;;9.00;7.23;;;;;;;;;;6253585;28;20186;-71
2023/07/18 15:52:31;;;;;;;8.27;7.50;;;;;;;;;;6255402;28;20186;-69
2023/07/18 15:55:33;;;;;;;8.83;7.83;;;;;;;;;;6239663;28;20203;-70
2023/07/18 15:58:34;;;;;;;8.50;7.70;;;;;;;;;;6262477;28;20182;-73
2023/07/18 16:01:35;;;;;;;7.93;7.33;;;;;;;;;;6270899;28;20206;-72
2023/07/18 16:04:36;;;;;;;8.83;8.03;;;;;;;;;;6255285;28;20186;-67
2023/07/18 16:07:37;;;;;;;9.20;8.37;;;;;;;;;;6245151;28;20193;-71
2023/07/18 16:10:38;;;;;;;9.27;8.33;;;;;;;;;;6271889;28;20194;-65
2023/07/18 16:13:39;;;;;;;31.07;16.43;;;;;;;;;;6250650;28;20284;-63
2023/07/18 16:16:42;;;;;;;20.47;14.47;;;;;;;;;;6272239;28;20205;-65
2023/07/18 16:19:46;;;;;;;16.90;14.57;;;;;;;;;;6256093;28;20198;-65
2023/07/18 16:22:52;;;;;;;17.10;14.23;;;;;;;;;;6289350;28;20198;-67
2023/07/18 16:25:54;;;;;;;18.07;16.23;;;;;;;;;;6289233;28;20183;-65
2023/07/18 16:28:55;;;;;;;19.10;16.23;;;;;;;;;;6280846;28;20234;-66
2023/07/18 16:31:56;;;;;;;18.07;15.03;;;;;;;;;;6251163;28;20304;-67
2023/07/18 16:34:57;;;;;;;18.00;16.10;;;;;;;;;;6290863;28;20177;-67
2023/07/18 16:37:58;;;;;;;17.83;15.90;;;;;;;;;;6248559;28;20197;-67
2023/07/18 16:41:00;;;;;;;18.80;16.87;;;;;;;;;;6252271;28;20213;-66
2023/07/18 16:44:01;;;;;;;18.17;16.33;;;;;;;;;;6253653;28;20186;-66
2023/07/18 16:47:03;;;;;;;19.27;17.40;;;;;;;;;;6257207;28;20268;-66
2023/07/18 16:50:04;;;;;;;19.67;17.77;;;;;;;;;;6244644;28;20210;-67
2023/07/18 16:53:06;;;;;;;23.63;20.53;;;;;;;;;;6256907;28;20194;-66
2023/07/18 16:56:11;;;;;;;26.87;21.93;;;;;;;;;;6250743;28;20189;-66
2023/07/18 16:59:12;;;;;;;21.13;19.23;;;;;;;;;;6254841;28;20185;-66
2023/07/18 17:02:13;;;;;;;17.60;14.43;;;;;;;;;;6250151;28;20264;-66
2023/07/18 17:05:14;;;;;;;16.00;14.33;;;;;;;;;;6276439;28;20200;-66
2023/07/18 17:08:16;;;;;;;11.33;10.23;;;;;;;;;;6250764;28;20277;-65
2023/07/18 17:11:17;;;;;;;11.00;7.57;;;;;;;;;;6235289;28;20220;-67
2023/07/18 17:14:18;;;;;;;8.83;7.90;;;;;;;;;;6275386;28;20197;-66
2023/07/18 17:17:19;;;;;;;9.17;8.27;;;;;;;;;;6248654;28;20197;-66
2023/07/18 17:20:21;;;;;;;9.17;5.53;;;;;;;;;;6257821;28;20200;-67
2023/07/18 17:23:22;;;;;;;7.03;5.40;;;;;;;;;;6249050;28;20185;-66
2023/07/18 17:26:23;;;;;;;8.17;6.03;;;;;;;;;;6257208;28;20189;-66
2023/07/18 17:29:24;;;;;;;12.80;7.60;;;;;;;;;;6241380;28;20257;-67
2023/07/18 17:32:26;;;;;;;10.87;7.80;;;;;;;;;;6252188;28;20189;-67
2023/07/18 17:35:28;;;;;;;16.50;9.07;;;;;;;;;;6243031;28;20259;-65
2023/07/18 17:38:30;;;;;;;8.37;7.27;;;;;;;;;;6249417;28;20205;-66
2023/07/18 17:41:32;;;;;;;11.33;8.13;;;;;;;;;;6246014;28;20214;-66
2023/07/18 17:44:33;;;;;;;10.03;7.23;;;;;;;;;;6259370;28;20190;-65
2023/07/18 17:47:35;;;;;;;7.87;6.27;;;;;;;;;;6250904;28;20188;-69